createdAt,value
2019-04-29T00:02:27.655Z,9.87
2019-04-29T00:04:53.938Z,10.93
2019-04-29T00:07:20.211Z,10.33
2019-04-29T00:09:46.410Z,12.00
2019-04-29T00:12:12.981Z,11.77
2019-04-29T00:14:41.064Z,11.47
2019-04-29T00:17:09.166Z,11.17
2019-04-29T00:19:37.250Z,11.43
2019-04-29T00:22:03.525Z,11.20
2019-04-29T00:24:29.729Z,10.67
2019-04-29T00:26:56.005Z,11.03
2019-04-29T00:29:22.167Z,12.50
2019-04-29T00:31:48.570Z,13.17
2019-04-29T00:34:14.846Z,11.40
2019-04-29T00:36:42.929Z,13.27
2019-04-29T00:39:11.122Z,16.03
2019-04-29T00:41:39.202Z,16.80
2019-04-29T00:44:07.287Z,15.43
2019-04-29T00:46:33.934Z,16.27
2019-04-29T00:49:00.123Z,16.50
2019-04-29T00:51:26.286Z,15.70
2019-04-29T00:53:54.399Z,15.17
2019-04-29T00:56:20.571Z,17.03
2019-04-29T00:58:46.742Z,17.53
2019-04-29T01:01:14.843Z,18.67
2019-04-29T01:03:41.306Z,16.93
2019-04-29T01:06:07.705Z,18.83
2019-04-29T01:08:33.961Z,18.47
2019-04-29T01:11:00.078Z,19.03
2019-04-29T01:13:26.350Z,19.33
2019-04-29T01:15:52.554Z,18.70
2019-04-29T01:18:18.723Z,17.63
2019-04-29T01:20:44.890Z,17.53
2019-04-29T01:23:11.174Z,19.43
2019-04-29T01:25:37.359Z,18.93
2019-04-29T01:28:05.424Z,18.90
2019-04-29T01:30:33.638Z,19.20
2019-04-29T01:32:59.805Z,18.03
2019-04-29T01:35:25.975Z,18.77
2019-04-29T01:37:52.249Z,17.03
2019-04-29T01:40:20.326Z,18.53
2019-04-29T01:42:46.490Z,18.33
2019-04-29T01:45:12.690Z,20.20
2019-04-29T01:47:39.266Z,21.40
2019-04-29T01:50:05.439Z,18.13
2019-04-29T01:52:31.718Z,18.87
2019-04-29T01:54:57.894Z,20.33
2019-04-29T01:57:24.070Z,21.73
2019-04-29T01:59:50.454Z,19.30
2019-04-29T02:02:16.622Z,21.70
2019-04-29T02:04:42.895Z,20.70
2019-04-29T02:07:09.095Z,21.90
2019-04-29T02:09:37.179Z,20.93
2019-04-29T02:12:03.454Z,19.67
2019-04-29T02:14:29.722Z,21.10
2019-04-29T02:16:55.900Z,20.50
2019-04-29T02:19:22.070Z,19.67
2019-04-29T02:21:50.170Z,21.57
2019-04-29T02:24:18.262Z,21.40
2019-04-29T02:26:44.542Z,22.87
2019-04-29T02:29:10.748Z,21.87
2019-04-29T02:31:36.923Z,20.80
2019-04-29T02:34:03.194Z,20.87
2019-04-29T02:36:30.151Z,20.90
2019-04-29T02:38:58.583Z,21.40
2019-04-29T02:41:26.760Z,23.10
2019-04-29T02:43:54.877Z,19.97
2019-04-29T02:46:21.043Z,21.77
2019-04-29T02:48:48.378Z,23.73
2019-04-29T02:51:16.476Z,24.07
2019-04-29T02:53:42.646Z,21.13
2019-04-29T02:56:08.818Z,22.63
2019-04-29T02:58:36.929Z,22.87
2019-04-29T03:01:05.003Z,23.83
2019-04-29T03:03:33.083Z,22.17
2019-04-29T03:06:01.198Z,24.27
2019-04-29T03:08:27.358Z,21.73
2019-04-29T03:10:53.523Z,22.87
2019-04-29T03:13:19.718Z,21.97
2019-04-29T03:15:45.907Z,21.33
2019-04-29T03:18:12.075Z,23.87
2019-04-29T03:20:40.184Z,25.07
2019-04-29T03:23:08.268Z,24.90
2019-04-29T03:25:34.457Z,26.27
2019-04-29T03:28:00.636Z,27.47
2019-04-29T03:30:26.815Z,26.10
2019-04-29T03:32:53.093Z,26.97
2019-04-29T03:35:19.289Z,26.60
2019-04-29T03:37:45.455Z,29.27
2019-04-29T03:40:11.625Z,25.67
2019-04-29T03:42:37.962Z,24.93
2019-04-29T03:45:05.745Z,27.90
2019-04-29T03:47:31.909Z,26.40
2019-04-29T03:49:58.440Z,26.00
2019-04-29T03:52:24.627Z,21.20
2019-04-29T03:54:50.886Z,21.30
2019-04-29T03:57:18.472Z,18.80
2019-04-29T03:59:44.657Z,19.17
2019-04-29T04:02:12.728Z,19.80
2019-04-29T04:04:40.906Z,20.53
2019-04-29T04:07:08.989Z,18.87
2019-04-29T04:09:35.253Z,21.00
2019-04-29T04:12:01.531Z,24.93
2019-04-29T04:14:27.810Z,24.77
2019-04-29T04:16:55.887Z,23.43
2019-04-29T04:19:23.097Z,22.67
2019-04-29T04:21:49.280Z,23.87
2019-04-29T04:24:15.549Z,23.90
2019-04-29T04:26:41.750Z,23.17
2019-04-29T04:29:07.920Z,24.93
2019-04-29T04:31:34.098Z,24.33
2019-04-29T04:34:00.302Z,23.93
2019-04-29T04:36:26.474Z,24.40
2019-04-29T04:38:52.650Z,24.33
2019-04-29T04:41:18.861Z,25.60
2019-04-29T04:43:45.033Z,23.60
2019-04-29T04:46:11.203Z,28.27
2019-04-29T04:48:37.407Z,23.67
2019-04-29T04:51:04.978Z,19.87
2019-04-29T04:53:31.147Z,16.80
2019-04-29T04:55:59.246Z,15.37
2019-04-29T04:58:25.414Z,13.70
2019-04-29T05:00:51.596Z,14.73
2019-04-29T05:03:17.802Z,16.43
2019-04-29T05:05:43.978Z,18.03
2019-04-29T05:08:10.350Z,15.87
2019-04-29T05:10:36.550Z,15.90
2019-04-29T05:13:02.732Z,16.20
2019-04-29T05:15:28.898Z,14.97
2019-04-29T05:17:55.182Z,16.70
2019-04-29T05:20:21.360Z,16.50
2019-04-29T05:22:49.445Z,17.23
2019-04-29T05:25:15.642Z,15.63
2019-04-29T05:27:41.821Z,19.03
2019-04-29T05:30:08.093Z,15.30
2019-04-29T05:32:34.281Z,16.60
2019-04-29T05:35:02.357Z,17.67
2019-04-29T05:37:30.434Z,18.93
2019-04-29T05:39:56.731Z,19.87
2019-04-29T05:42:22.963Z,19.17
2019-04-29T05:44:50.968Z,17.17
2019-04-29T05:47:19.077Z,20.60
2019-04-29T05:49:47.159Z,21.33
2019-04-29T05:52:16.602Z,20.83
2019-04-29T05:54:44.515Z,19.37
2019-04-29T05:57:10.891Z,19.67
2019-04-29T05:59:37.060Z,16.30
2019-04-29T06:02:03.349Z,16.23
2019-04-29T06:04:29.519Z,15.67
2019-04-29T06:06:55.687Z,14.13
2019-04-29T06:09:21.908Z,16.07
2019-04-29T06:11:48.083Z,14.27
2019-04-29T06:14:14.255Z,13.67
2019-04-29T06:16:40.539Z,11.50
2019-04-29T06:19:06.713Z,15.23
2019-04-29T06:21:33.286Z,14.80
2019-04-29T06:24:04.063Z,14.03
2019-04-29T06:26:27.542Z,13.07
2019-04-29T06:28:54.077Z,13.80
2019-04-29T06:31:20.475Z,12.10
2019-04-29T06:33:46.681Z,11.10
2019-04-29T06:36:12.854Z,14.00
2019-04-29T06:38:40.965Z,12.07
2019-04-29T06:41:09.822Z,13.43
2019-04-29T06:43:35.108Z,13.00
2019-04-29T06:46:01.490Z,12.80
2019-04-29T06:48:27.666Z,13.83
2019-04-29T06:50:53.839Z,10.60
2019-04-29T06:53:23.156Z,11.63
2019-04-29T06:55:51.854Z,12.70
2019-04-29T06:58:18.340Z,11.77
2019-04-29T07:00:44.646Z,12.90
2019-04-29T07:03:10.826Z,11.43
2019-04-29T07:05:36.990Z,11.13
2019-04-29T07:08:03.188Z,11.80
2019-04-29T07:10:29.386Z,13.83
2019-04-29T07:12:55.586Z,13.23
2019-04-29T07:15:21.782Z,14.13
2019-04-29T07:17:47.954Z,12.37
2019-04-29T07:20:14.226Z,15.37
2019-04-29T07:22:40.564Z,15.80
2019-04-29T07:25:06.747Z,17.53
2019-04-29T07:27:34.841Z,16.90
2019-04-29T07:30:01.873Z,16.40
2019-04-29T07:32:32.070Z,12.97
2019-04-29T07:34:57.091Z,13.63
2019-04-29T07:37:23.334Z,16.67
2019-04-29T07:39:49.510Z,16.60
2019-04-29T07:42:15.690Z,13.97
2019-04-29T07:44:44.489Z,15.40
2019-04-29T07:47:10.786Z,14.27
2019-04-29T07:49:36.969Z,13.67
2019-04-29T07:52:03.470Z,14.20
2019-04-29T07:54:29.946Z,13.73
2019-04-29T07:56:56.122Z,13.47
2019-04-29T07:59:23.730Z,6.80
2019-04-29T08:01:50.164Z,7.03
2019-04-29T08:04:16.272Z,7.73
2019-04-29T08:06:44.458Z,6.77
2019-04-29T08:09:10.538Z,7.40
2019-04-29T08:11:36.701Z,8.37
2019-04-29T08:14:03.004Z,7.30
2019-04-29T08:16:29.177Z,8.60
2019-04-29T08:18:55.469Z,11.33
2019-04-29T08:21:21.754Z,10.80
2019-04-29T08:23:48.026Z,9.63
2019-04-29T08:26:14.209Z,9.13
2019-04-29T08:28:40.398Z,10.63
2019-04-29T08:31:06.570Z,11.60
2019-04-29T08:33:32.842Z,11.53
2019-04-29T08:35:59.046Z,12.73
2019-04-29T08:38:25.230Z,10.40
2019-04-29T08:40:51.747Z,9.47
2019-04-29T08:43:20.626Z,13.43
2019-04-29T08:45:49.878Z,11.70
2019-04-29T08:48:16.266Z,11.03
2019-04-29T08:50:42.466Z,9.77
2019-04-29T08:53:08.643Z,10.47
2019-04-29T08:55:36.553Z,14.53
2019-04-29T08:58:06.776Z,13.60
2019-04-29T09:00:31.042Z,14.93
2019-04-29T09:02:57.517Z,13.97
2019-04-29T09:05:24.169Z,14.20
2019-04-29T09:07:52.653Z,15.20
2019-04-29T09:10:18.312Z,15.13
2019-04-29T09:12:44.522Z,17.00
2019-04-29T09:15:10.885Z,14.37
2019-04-29T09:17:37.055Z,11.37
2019-04-29T09:20:05.266Z,16.43
2019-04-29T09:22:33.337Z,18.40
2019-04-29T09:25:01.436Z,17.80
2019-04-29T09:27:27.640Z,14.70
2019-04-29T09:29:54.252Z,18.13
2019-04-29T09:32:21.807Z,16.87
2019-04-29T09:34:48.081Z,18.20
2019-04-29T09:37:14.264Z,20.63
2019-04-29T09:39:43.777Z,18.23
2019-04-29T09:42:13.023Z,19.00
2019-04-29T09:44:44.879Z,22.73
2019-04-29T09:47:11.288Z,22.57
2019-04-29T09:49:37.573Z,21.23
2019-04-29T09:52:04.739Z,22.93
2019-04-29T09:54:30.922Z,22.70
2019-04-29T09:56:58.199Z,21.03
2019-04-29T09:59:26.279Z,18.00
2019-04-29T10:01:54.962Z,20.20
2019-04-29T10:04:24.353Z,19.33
2019-04-29T10:06:52.434Z,18.07
2019-04-29T10:09:18.751Z,23.23
2019-04-29T10:11:44.946Z,20.03
2019-04-29T10:14:11.118Z,21.93
2019-04-29T10:16:39.214Z,21.50
2019-04-29T10:19:07.310Z,20.40
2019-04-29T10:21:33.787Z,23.80
2019-04-29T10:24:00.067Z,23.03
2019-04-29T10:26:26.348Z,23.37
2019-04-29T10:28:54.431Z,21.87
2019-04-29T10:31:21.699Z,19.67
2019-04-29T10:33:50.259Z,22.00
2019-04-29T10:36:16.071Z,18.20
2019-04-29T10:38:44.892Z,20.07
2019-04-29T10:41:14.073Z,19.47
2019-04-29T10:43:42.150Z,19.10
2019-04-29T10:46:10.739Z,18.63
2019-04-29T10:48:39.498Z,17.67
2019-04-29T10:51:07.569Z,19.60
2019-04-29T10:53:33.746Z,19.07
2019-04-29T10:56:01.023Z,24.73
2019-04-29T10:58:31.202Z,22.43
2019-04-29T11:01:02.865Z,23.77
2019-04-29T11:03:29.351Z,25.33
2019-04-29T11:06:00.386Z,24.00
2019-04-29T11:08:25.506Z,24.83
2019-04-29T11:10:52.090Z,24.97
2019-04-29T11:13:18.278Z,24.23
2019-04-29T11:15:44.979Z,25.63
2019-04-29T11:18:12.471Z,27.20
2019-04-29T11:20:38.638Z,23.13
2019-04-29T11:23:09.239Z,25.60
2019-04-29T11:25:36.718Z,26.23
2019-04-29T11:28:03.157Z,26.07
2019-04-29T11:30:34.859Z,27.70
2019-04-29T11:33:04.655Z,27.73
2019-04-29T11:35:35.545Z,28.57
2019-04-29T11:38:00.072Z,27.97
2019-04-29T11:40:42.601Z,26.67
2019-04-29T11:42:54.282Z,24.63
2019-04-29T11:45:20.666Z,23.23
2019-04-29T11:47:46.838Z,24.33
2019-04-29T11:50:14.907Z,26.17
2019-04-29T11:52:41.510Z,26.90
2019-04-29T11:55:07.786Z,24.70
2019-04-29T11:57:41.029Z,28.00
2019-04-29T12:00:10.222Z,26.97
2019-04-29T12:02:45.329Z,24.97
2019-04-29T12:05:08.966Z,23.17
2019-04-29T12:07:36.266Z,25.17
2019-04-29T12:10:06.466Z,24.63
2019-04-29T12:12:32.726Z,23.07
2019-04-29T12:15:00.840Z,24.07
2019-04-29T12:17:28.921Z,25.67
2019-04-29T12:19:57.005Z,26.00
2019-04-29T12:22:30.062Z,24.17
2019-04-29T12:24:51.374Z,25.73
2019-04-29T12:27:19.723Z,25.70
2019-04-29T12:29:48.928Z,25.10
2019-04-29T12:32:15.836Z,27.03
2019-04-29T12:34:43.907Z,26.67
2019-04-29T12:37:12.014Z,24.93
2019-04-29T12:39:43.501Z,28.40
2019-04-29T12:42:08.182Z,26.57
2019-04-29T12:44:39.889Z,28.00
2019-04-29T12:47:07.474Z,27.80
2019-04-29T12:49:42.422Z,28.70
2019-04-29T12:52:06.706Z,28.67
2019-04-29T12:54:32.881Z,27.27
2019-04-29T12:56:59.059Z,26.57
2019-04-29T12:59:25.287Z,28.87
2019-04-29T13:01:58.391Z,25.57
2019-04-29T13:04:23.658Z,24.67
2019-04-29T13:06:51.850Z,24.80
2019-04-29T13:09:18.301Z,23.87
2019-04-29T13:11:48.769Z,24.20
2019-04-29T13:14:12.631Z,25.47
2019-04-29T13:16:40.706Z,24.13
2019-04-29T13:19:12.541Z,23.07
2019-04-29T13:21:39.326Z,24.37
2019-04-29T13:24:13.867Z,21.30
2019-04-29T13:26:33.401Z,22.90
2019-04-29T13:29:01.670Z,22.63
2019-04-29T13:31:38.212Z,22.37
2019-04-29T13:34:04.835Z,21.83
2019-04-29T13:36:26.341Z,21.00
2019-04-29T13:38:54.041Z,20.77
2019-04-29T13:41:26.617Z,19.27
2019-04-29T13:44:05.689Z,19.03
2019-04-29T13:46:32.978Z,16.47
2019-04-29T13:49:06.862Z,17.70
2019-04-29T13:51:36.134Z,17.43
2019-04-29T13:53:59.086Z,15.57
2019-04-29T13:56:35.172Z,16.10
2019-04-29T13:58:54.082Z,16.00
2019-04-29T14:01:31.125Z,14.90
2019-04-29T14:03:52.682Z,14.43
2019-04-29T14:06:19.939Z,14.13
2019-04-29T14:08:46.326Z,16.53
2019-04-29T14:11:12.557Z,16.93
2019-04-29T14:13:43.640Z,17.03
2019-04-29T14:16:11.574Z,16.97
2019-04-29T14:18:35.990Z,17.23
2019-04-29T14:21:02.166Z,18.50
2019-04-29T14:23:28.819Z,17.80
2019-04-29T14:25:55.024Z,15.53
2019-04-29T14:28:21.202Z,15.20
2019-04-29T14:30:48.878Z,14.17
2019-04-29T14:33:19.320Z,16.43
2019-04-29T14:35:48.243Z,15.60
2019-04-29T14:38:15.243Z,15.80
2019-04-29T14:40:42.803Z,14.77
2019-04-29T14:43:26.033Z,15.60
2019-04-29T14:45:39.314Z,14.90
2019-04-29T14:48:07.616Z,14.40
2019-04-29T14:50:33.991Z,13.67
2019-04-29T14:53:00.171Z,13.13
2019-04-29T14:55:27.084Z,11.17
2019-04-29T14:57:53.390Z,10.53
2019-04-29T15:00:21.665Z,10.30
2019-04-29T15:02:48.131Z,9.27
2019-04-29T15:05:15.078Z,9.27
2019-04-29T15:07:41.466Z,6.93
2019-04-29T15:10:08.099Z,9.00
2019-04-29T15:12:36.369Z,7.33
2019-04-29T15:15:06.598Z,8.87
2019-04-29T15:17:34.719Z,7.93
2019-04-29T15:20:02.859Z,7.20
2019-04-29T15:22:30.995Z,7.23
2019-04-29T15:24:57.293Z,6.47
2019-04-29T15:27:23.475Z,5.93
2019-04-29T15:29:49.651Z,5.17
2019-04-29T15:32:17.900Z,5.43
2019-04-29T15:34:47.714Z,5.53
2019-04-29T15:37:11.912Z,5.37
2019-04-29T15:39:40.903Z,3.60
2019-04-29T15:42:08.601Z,3.10
2019-04-29T15:44:34.347Z,2.47
2019-04-29T15:47:00.633Z,2.17
2019-04-29T15:49:26.798Z,2.10
2019-04-29T15:51:53.010Z,1.97
2019-04-29T15:54:19.216Z,1.63
2019-04-29T15:56:45.381Z,1.90
2019-04-29T15:59:11.554Z,1.40
2019-04-29T16:01:41.389Z,2.00
2019-04-29T16:04:07.746Z,3.13
2019-04-29T16:06:39.964Z,1.97
2019-04-29T16:09:07.590Z,1.27
2019-04-29T16:11:35.678Z,1.77
2019-04-29T16:14:09.537Z,1.00
2019-04-29T16:16:30.982Z,0.80
2019-04-29T16:19:07.308Z,0.90
2019-04-29T16:21:25.326Z,0.90
2019-04-29T16:23:57.476Z,1.00
2019-04-29T16:26:24.835Z,0.87
2019-04-29T16:28:47.679Z,1.10
2019-04-29T16:31:14.453Z,0.93
2019-04-29T16:33:40.876Z,0.60
2019-04-29T16:36:07.026Z,0.60
2019-04-29T16:38:33.230Z,0.70
2019-04-29T16:41:01.408Z,0.60
2019-04-29T16:43:29.474Z,0.70
2019-04-29T16:45:57.570Z,0.50
2019-04-29T16:48:24.042Z,0.50
2019-04-29T16:50:50.245Z,0.60
2019-04-29T16:53:16.422Z,0.50
2019-04-29T16:55:43.454Z,0.60
2019-04-29T16:58:17.832Z,0.50
2019-04-29T17:00:39.403Z,0.40
2019-04-29T17:03:05.603Z,0.67
2019-04-29T17:05:31.761Z,0.40
2019-04-29T17:07:58.457Z,0.37
2019-04-29T17:10:24.638Z,0.50
2019-04-29T17:12:51.418Z,0.50
2019-04-29T17:15:25.150Z,0.40
2019-04-29T17:17:46.009Z,0.57
2019-04-29T17:20:12.374Z,0.40
2019-04-29T17:22:43.415Z,0.60
2019-04-29T17:25:08.769Z,0.40
2019-04-29T17:27:41.965Z,0.50
2019-04-29T17:30:08.344Z,0.50
2019-04-29T17:32:44.396Z,0.83
2019-04-29T17:35:05.854Z,0.50
2019-04-29T17:37:32.302Z,0.50
2019-04-29T17:39:58.474Z,0.40
2019-04-29T17:42:26.554Z,0.40
2019-04-29T17:44:52.749Z,0.43
2019-04-29T17:47:20.931Z,0.40
2019-04-29T17:49:49.195Z,0.30
2019-04-29T17:52:17.992Z,0.30
2019-04-29T17:54:46.209Z,0.23
2019-04-29T17:57:26.485Z,0.30
2019-04-29T17:59:45.540Z,0.30
2019-04-29T18:02:21.852Z,0.30
2019-04-29T18:04:42.050Z,0.50
2019-04-29T18:07:12.272Z,0.47
2019-04-29T18:09:40.478Z,0.40
2019-04-29T18:12:08.566Z,0.53
2019-04-29T18:14:38.913Z,0.50
2019-04-29T18:17:05.050Z,0.60
2019-04-29T18:19:34.909Z,0.70
2019-04-29T18:22:03.242Z,0.40
2019-04-29T18:24:34.125Z,0.50
2019-04-29T18:27:01.310Z,0.70
2019-04-29T18:29:27.615Z,1.00
2019-04-29T18:31:55.552Z,0.73
2019-04-29T18:34:21.874Z,1.10
2019-04-29T18:36:48.178Z,1.20
2019-04-29T18:39:20.108Z,1.30
2019-04-29T18:41:44.841Z,1.60
2019-04-29T18:44:19.019Z,1.77
2019-04-29T18:46:39.158Z,3.10
2019-04-29T18:49:07.083Z,3.33
2019-04-29T18:51:34.773Z,3.73
2019-04-29T18:54:01.009Z,3.90
2019-04-29T18:56:27.382Z,4.60
2019-04-29T18:58:53.586Z,4.83
2019-04-29T19:01:24.047Z,4.97
2019-04-29T19:03:49.959Z,5.43
2019-04-29T19:06:16.354Z,6.70
2019-04-29T19:08:42.518Z,6.10
2019-04-29T19:11:09.086Z,5.97
2019-04-29T19:13:36.263Z,6.30
2019-04-29T19:16:09.593Z,6.07
2019-04-29T19:18:30.754Z,6.23
2019-04-29T19:20:57.125Z,6.40
2019-04-29T19:23:24.611Z,5.97
2019-04-29T19:25:51.342Z,6.63
2019-04-29T19:28:29.965Z,5.80
2019-04-29T19:30:45.769Z,5.67
2019-04-29T19:33:12.002Z,6.57
2019-04-29T19:35:38.746Z,7.30
2019-04-29T19:38:06.963Z,6.87
2019-04-29T19:40:39.027Z,6.50
2019-04-29T19:43:01.406Z,7.17
2019-04-29T19:45:27.682Z,6.10
2019-04-29T19:47:55.684Z,6.47
2019-04-29T19:50:21.854Z,6.23
2019-04-29T19:52:48.130Z,4.93
2019-04-29T19:55:14.475Z,5.70
2019-04-29T19:57:46.646Z,6.27
2019-04-29T20:00:09.312Z,6.03
2019-04-29T20:02:36.518Z,5.70
2019-04-29T20:05:08.333Z,6.13
2019-04-29T20:07:41.281Z,6.40
2019-04-29T20:10:08.327Z,6.87
2019-04-29T20:12:33.599Z,8.83
2019-04-29T20:15:02.348Z,7.43
2019-04-29T20:17:31.522Z,8.27
2019-04-29T20:20:00.826Z,6.20
2019-04-29T20:22:27.461Z,6.90
2019-04-29T20:24:55.631Z,6.67
2019-04-29T20:27:25.886Z,6.43
2019-04-29T20:29:49.908Z,6.47
2019-04-29T20:32:16.749Z,6.70
2019-04-29T20:34:43.320Z,5.87
2019-04-29T20:37:10.830Z,6.83
2019-04-29T20:39:37.710Z,5.97
2019-04-29T20:42:06.446Z,6.53
2019-04-29T20:44:32.211Z,6.37
2019-04-29T20:47:17.113Z,6.43
2019-04-29T20:49:26.658Z,6.03
2019-04-29T20:51:56.412Z,5.87
2019-04-29T20:54:25.447Z,6.27
2019-04-29T20:57:02.094Z,6.77
2019-04-29T20:59:20.092Z,5.47
2019-04-29T21:01:48.437Z,5.50
2019-04-29T21:04:30.575Z,6.80
2019-04-29T21:06:57.537Z,7.10
2019-04-29T21:09:10.770Z,6.20
2019-04-29T21:11:38.863Z,5.40
2019-04-29T21:14:08.435Z,5.87
2019-04-29T21:16:36.529Z,5.87
2019-04-29T21:19:08.265Z,6.83
2019-04-29T21:21:36.895Z,5.90
2019-04-29T21:24:01.190Z,5.67
2019-04-29T21:26:27.686Z,5.07
2019-04-29T21:28:55.422Z,5.37
2019-04-29T21:31:21.938Z,4.10
2019-04-29T21:33:50.744Z,5.70
2019-04-29T21:36:18.025Z,4.80
2019-04-29T21:38:48.375Z,4.07
2019-04-29T21:41:20.166Z,4.37
2019-04-29T21:43:52.999Z,4.27
2019-04-29T21:46:18.024Z,3.00
2019-04-29T21:48:42.776Z,3.93
2019-04-29T21:51:11.210Z,3.80
2019-04-29T21:53:40.234Z,3.73
2019-04-29T21:56:09.165Z,5.27
2019-04-29T21:58:34.090Z,5.00
2019-04-29T22:01:00.921Z,4.30
2019-04-29T22:03:28.061Z,5.80
2019-04-29T22:05:55.583Z,4.60
2019-04-29T22:08:27.167Z,4.50
2019-04-29T22:10:50.250Z,4.60
2019-04-29T22:13:16.434Z,4.47
2019-04-29T22:15:43.167Z,4.60
2019-04-29T22:18:13.642Z,4.07
2019-04-29T22:20:42.210Z,5.27
2019-04-29T22:23:08.285Z,5.50
2019-04-29T22:25:33.400Z,4.20
2019-04-29T22:27:59.659Z,5.03
2019-04-29T22:30:26.552Z,4.30
2019-04-29T22:32:58.112Z,4.17
2019-04-29T22:35:21.277Z,5.57
2019-04-29T22:37:47.440Z,5.37
2019-04-29T22:40:15.418Z,4.93
2019-04-29T22:42:45.658Z,7.03
2019-04-29T22:45:11.879Z,6.27
2019-04-29T22:47:38.086Z,5.27
2019-04-29T22:50:04.555Z,4.83
2019-04-29T22:52:31.484Z,4.90
2019-04-29T22:55:01.415Z,5.17
2019-04-29T22:57:30.124Z,5.37
2019-04-29T22:59:57.105Z,6.33
2019-04-29T23:02:25.117Z,5.37
2019-04-29T23:04:53.740Z,6.40
2019-04-29T23:07:22.215Z,5.83
2019-04-29T23:09:47.836Z,6.97
2019-04-29T23:12:18.422Z,6.57
2019-04-29T23:14:44.442Z,6.23
2019-04-29T23:17:12.216Z,6.30
2019-04-29T23:19:38.896Z,7.27
2019-04-29T23:22:10.419Z,5.10
2019-04-29T23:24:38.162Z,6.03
2019-04-29T23:27:06.151Z,6.03
2019-04-29T23:29:32.494Z,5.30
2019-04-29T23:31:59.658Z,6.83
2019-04-29T23:34:29.161Z,4.83
2019-04-29T23:36:54.691Z,5.67
2019-04-29T23:39:20.873Z,5.20
2019-04-29T23:41:47.044Z,5.73
2019-04-29T23:44:13.210Z,7.27
2019-04-29T23:46:39.664Z,6.67
2019-04-29T23:49:06.775Z,5.97
2019-04-29T23:51:34.292Z,6.47
2019-04-29T23:54:05.894Z,5.40
2019-04-29T23:56:31.031Z,7.20
2019-04-29T23:58:59.090Z,5.73
